Time;durP1;ratioP1;P1;durP2;ratioP2;P2;SDS_P1;SDS_P2;PMS_P1;PMS_P2;Temp;Humidity;BMP_temperature;BMP_pressure;BME280_temperature;BME280_humidity;BME280_pressure;Samples;Min_cycle;Max_cycle;Signal;HPM_P1;HPM_P2
2023/01/20 00:01:46;;;;;;;8.70;6.10;;;;;;;3.89;87.48;94679.48;106438;1278;24196;-71
2023/01/20 00:04:17;;;;;;;10.10;7.60;;;;;;;3.95;87.68;94680.32;106376;1276;22537;-71
2023/01/20 00:06:46;;;;;;;10.10;6.80;;;;;;;3.97;87.60;94682.39;106529;1276;22530;-71
2023/01/20 00:09:16;;;;;;;10.40;7.60;;;;;;;3.91;87.50;94695.66;106384;1276;22539;-71
2023/01/20 00:11:45;;;;;;;9.60;7.20;;;;;;;3.87;87.82;94698.11;106367;1266;24226;-71
2023/01/20 00:14:14;;;;;;;10.80;8.30;;;;;;;3.90;88.04;94700.70;106481;1275;22532;-71
2023/01/20 00:16:42;;;;;;;12.00;8.20;;;;;;;4.00;88.28;94703.41;106460;1278;22535;-71
2023/01/20 00:19:14;;;;;;;12.20;9.00;;;;;;;4.07;88.13;94702.84;106507;1278;25224;-71
2023/01/20 00:21:42;;;;;;;14.10;9.40;;;;;;;4.15;88.06;94705.23;106441;1278;24476;-71
2023/01/20 00:24:10;;;;;;;12.80;9.10;;;;;;;4.17;87.77;94703.97;106475;1278;24253;-71
2023/01/20 00:26:38;;;;;;;16.40;11.60;;;;;;;4.15;87.52;94698.60;106357;1278;22536;-71
2023/01/20 00:29:08;;;;;;;21.70;13.00;;;;;;;4.12;87.39;94696.52;106597;1276;22647;-71
2023/01/20 00:31:36;;;;;;;17.90;13.00;;;;;;;4.10;87.55;94693.23;106671;1276;22672;-71
2023/01/20 00:34:05;;;;;;;18.80;11.60;;;;;;;4.11;87.56;94687.67;106619;1276;23921;-71
2023/01/20 00:36:33;;;;;;;19.40;13.00;;;;;;;4.11;87.57;94682.27;106651;1276;22526;-71
2023/01/20 00:39:02;;;;;;;22.00;14.90;;;;;;;4.09;87.66;94681.06;106604;1276;22553;-71
2023/01/20 00:41:31;;;;;;;19.60;12.70;;;;;;;4.05;87.66;94677.09;106471;1276;22534;-71
2023/01/20 00:43:59;;;;;;;19.30;12.20;;;;;;;4.01;87.77;94677.83;106648;1276;22522;-71
2023/01/20 00:46:27;;;;;;;21.30;13.80;;;;;;;3.96;87.77;94683.42;106594;1276;24202;-71
2023/01/20 00:48:55;;;;;;;18.00;11.50;;;;;;;3.95;87.98;94682.07;106725;1276;25329;-71
2023/01/20 00:51:24;;;;;;;15.00;10.90;;;;;;;3.95;88.31;94697.55;106771;1276;22528;-71
2023/01/20 00:53:52;;;;;;;15.90;10.20;;;;;;;3.92;87.78;94704.87;106788;1276;22763;-71
2023/01/20 00:56:20;;;;;;;17.90;11.50;;;;;;;3.85;87.66;94704.39;106788;1276;22535;-71
2023/01/20 00:58:48;;;;;;;16.00;11.20;;;;;;;3.83;88.40;94691.53;106622;1276;25399;-71
2023/01/20 01:01:16;;;;;;;14.00;9.40;;;;;;;3.89;88.84;94688.52;106468;1276;26484;-71
2023/01/20 01:03:44;;;;;;;16.00;11.20;;;;;;;3.85;88.24;94689.25;106655;1276;22582;-71
2023/01/20 01:06:15;;;;;;;17.80;11.10;;;;;;;3.81;87.82;94690.52;106610;1276;22582;-71
2023/01/20 01:08:44;;;;;;;18.10;11.90;;;;;;;3.80;88.14;94686.86;106649;1276;23889;-71
2023/01/20 01:11:12;;;;;;;19.20;11.80;;;;;;;3.81;88.28;94686.16;106466;1267;24498;-71
2023/01/20 01:13:40;;;;;;;26.40;15.80;;;;;;;3.86;88.93;94684.55;106564;1276;22657;-71
2023/01/20 01:16:11;;;;;;;26.10;15.50;;;;;;;3.90;89.24;94678.61;106641;1276;24200;-71
2023/01/20 01:18:40;;;;;;;31.90;17.70;;;;;;;3.90;89.04;94676.17;106405;1276;22529;-71
2023/01/20 01:21:11;;;;;;;36.40;18.90;;;;;;;3.87;89.07;94672.36;106591;1276;23922;-71
2023/01/20 01:23:39;;;;;;;28.40;16.30;;;;;;;3.91;89.33;94669.91;106677;1276;22651;-71
2023/01/20 01:26:08;;;;;;;24.40;15.10;;;;;;;3.98;89.22;94663.76;106621;1276;24228;-71
2023/01/20 01:28:37;;;;;;;24.10;14.50;;;;;;;3.98;89.05;94651.06;106509;1277;22527;-71
2023/01/20 01:31:07;;;;;;;23.30;13.60;;;;;;;4.01;89.09;94643.04;106521;1278;25497;-71
2023/01/20 01:33:35;;;;;;;18.70;11.70;;;;;;;4.03;88.75;94637.79;106401;1278;22545;-70
2023/01/20 01:36:04;;;;;;;17.80;11.70;;;;;;;4.05;88.55;94627.68;106424;1278;22867;-71
2023/01/20 01:38:33;;;;;;;23.40;13.40;;;;;;;4.05;88.39;94627.33;106502;1278;22646;-71
2023/01/20 01:41:01;;;;;;;16.90;10.20;;;;;;;4.06;88.14;94621.41;106556;1278;23893;-71
2023/01/20 01:43:33;;;;;;;16.30;8.80;;;;;;;4.05;88.01;94627.51;106360;1278;22760;-71
2023/01/20 01:46:02;;;;;;;11.20;8.00;;;;;;;4.04;88.10;94635.34;106670;1278;22986;-71
2023/01/20 01:48:44;;;;;;;16.70;10.20;;;;;;;4.01;88.31;94645.29;106723;1278;22655;-71
2023/01/20 01:51:17;;;;;;;17.20;10.40;;;;;;;4.09;88.79;94645.39;106480;1278;22511;-71
2023/01/20 01:53:52;;;;;;;16.90;10.80;;;;;;;4.15;88.50;94646.73;106341;1278;25380;-71
2023/01/20 01:56:22;;;;;;;14.80;9.10;;;;;;;4.15;88.00;94647.77;106570;1278;22850;-71
2023/01/20 01:58:54;;;;;;;12.40;9.00;;;;;;;4.19;88.33;94644.42;106463;1278;25319;-70
2023/01/20 02:01:24;;;;;;;12.30;8.60;;;;;;;4.21;87.90;94647.54;106581;1278;22520;-71
2023/01/20 02:04:02;;;;;;;13.10;8.70;;;;;;;4.18;87.51;94649.31;106558;1278;24199;-71
2023/01/20 02:06:33;;;;;;;13.20;8.30;;;;;;;4.14;87.42;94656.32;106431;1278;25219;-71
2023/01/20 02:09:03;;;;;;;13.00;8.60;;;;;;;4.11;87.53;94655.47;106402;1278;24628;-71
2023/01/20 02:11:36;;;;;;;20.20;12.20;;;;;;;4.09;87.98;94649.91;106224;1278;25488;-71
2023/01/20 02:14:06;;;;;;;21.70;12.70;;;;;;;4.13;88.36;94641.70;106529;1278;25429;-71
2023/01/20 02:16:58;;;;;;;19.30;12.20;;;;;;;4.21;88.50;94635.70;106518;1278;24384;-71
2023/01/20 02:19:46;;;;;;;21.40;13.50;;;;;;;4.28;88.50;94625.73;106546;1278;22539;-70
2023/01/20 02:22:36;;;;;;;21.00;12.80;;;;;;;4.29;88.20;94621.71;106382;1278;24231;-71
2023/01/20 02:25:28;;;;;;;19.30;12.20;;;;;;;4.27;87.80;94629.20;106502;1278;22560;-71
2023/01/20 02:28:23;;;;;;;15.00;8.90;;;;;;;4.17;87.28;94630.19;106456;1278;24667;-71
2023/01/20 02:31:11;;;;;;;15.20;10.30;;;;;;;4.03;87.55;94634.31;106441;1278;22537;-71
2023/01/20 02:33:45;;;;;;;15.90;10.10;;;;;;;3.95;88.18;94638.55;106493;1278;22530;-70
2023/01/20 02:36:23;;;;;;;13.90;9.10;;;;;;;3.90;88.18;94632.85;106385;1278;25233;-71
2023/01/20 02:39:12;;;;;;;17.10;11.10;;;;;;;3.86;88.12;94626.27;106638;1278;22541;-71
2023/01/20 02:42:06;;;;;;;15.10;9.90;;;;;;;3.84;88.45;94611.16;106683;1278;24302;-71
2023/01/20 02:44:46;;;;;;;15.60;10.10;;;;;;;3.83;88.13;94612.38;106418;1278;22699;-71
2023/01/20 02:47:33;;;;;;;16.00;10.00;;;;;;;3.80;88.26;94612.92;106321;1278;24848;-71
2023/01/20 02:50:40;;;;;;;13.90;9.50;;;;;;;3.77;88.64;94613.48;106489;1278;23891;-71
2023/01/20 02:53:11;;;;;;;14.30;9.50;;;;;;;3.76;88.59;94611.58;106569;1278;25323;-71
2023/01/20 02:55:47;;;;;;;14.80;9.30;;;;;;;3.76;88.46;94610.88;106739;1278;24295;-71
2023/01/20 02:58:40;;;;;;;13.50;8.70;;;;;;;3.73;88.26;94605.00;106386;1278;22999;-71
2023/01/20 03:01:19;;;;;;;14.80;8.90;;;;;;;3.68;88.64;94598.60;106716;1278;24063;-71
2023/01/20 03:03:53;;;;;;;15.90;10.70;;;;;;;3.64;88.78;94591.84;106588;1278;22527;-71
2023/01/20 03:06:26;;;;;;;16.00;10.40;;;;;;;3.64;88.86;94594.98;106368;1278;22935;-71
2023/01/20 03:08:57;;;;;;;17.50;11.70;;;;;;;3.64;88.96;94598.97;106412;1278;22553;-71
2023/01/20 03:11:30;;;;;;;18.80;11.80;;;;;;;3.65;88.84;94610.61;106539;1278;24419;-71
2023/01/20 03:14:07;;;;;;;20.40;12.90;;;;;;;3.66;89.00;94612.70;106511;1278;22553;-71
2023/01/20 03:16:37;;;;;;;23.40;12.80;;;;;;;3.67;89.26;94607.12;106424;1256;24336;-71
2023/01/20 03:19:06;;;;;;;22.90;12.30;;;;;;;3.72;89.51;94596.12;106387;1276;22657;-71
2023/01/20 03:21:35;;;;;;;22.20;11.80;;;;;;;3.76;89.75;94600.44;106484;1278;23890;-71
2023/01/20 03:24:05;;;;;;;20.00;12.80;;;;;;;3.77;90.01;94607.21;106546;1278;25318;-71
2023/01/20 03:26:33;;;;;;;20.40;12.70;;;;;;;3.77;89.89;94607.21;106382;1278;22529;-71
2023/01/20 03:29:05;;;;;;;20.10;12.00;;;;;;;3.75;90.10;94602.35;106589;1276;25472;-71
2023/01/20 03:31:41;;;;;;;21.10;12.70;;;;;;;3.74;90.65;94599.42;106666;1276;24378;-71
2023/01/20 03:34:14;;;;;;;18.00;11.20;;;;;;;3.70;90.52;94600.32;106472;1276;25300;-71
2023/01/20 03:36:44;;;;;;;20.30;11.30;;;;;;;3.70;90.44;94600.14;106680;1276;22779;-71
2023/01/20 03:39:12;;;;;;;21.70;12.10;;;;;;;3.69;90.34;94597.20;106674;1263;25457;-71
2023/01/20 03:41:53;;;;;;;18.40;10.70;;;;;;;3.68;90.39;94590.08;106638;1276;23280;-71
2023/01/20 03:44:59;;;;;;;16.90;10.70;;;;;;;3.72;90.82;94577.52;106682;1276;24311;-71
2023/01/20 03:47:49;;;;;;;16.80;10.50;;;;;;;3.69;90.78;94572.51;106614;1276;25223;-71
2023/01/20 03:50:33;;;;;;;16.70;10.10;;;;;;;3.66;91.27;94570.09;106952;1276;22655;-70
2023/01/20 03:53:08;;;;;;;13.80;9.30;;;;;;;3.59;91.55;94568.41;106640;1276;22527;-71
2023/01/20 03:55:54;;;;;;;17.90;10.40;;;;;;;3.54;91.47;94561.14;106591;1276;25410;-71
2023/01/20 03:58:30;;;;;;;16.80;10.00;;;;;;;3.56;91.41;94559.22;106634;1276;24201;-71
2023/01/20 04:01:01;;;;;;;14.70;9.50;;;;;;;3.57;91.89;94560.24;106673;1276;22513;-71
2023/01/20 04:03:46;;;;;;;13.10;8.20;;;;;;;3.56;91.78;94562.35;106674;1276;22599;-71
2023/01/20 04:06:18;;;;;;;13.60;8.80;;;;;;;3.52;91.86;94566.02;106739;1276;22528;-70
2023/01/20 04:08:52;;;;;;;12.80;7.60;;;;;;;3.54;91.96;94568.29;106649;1276;22527;-70
2023/01/20 04:11:24;;;;;;;16.30;9.00;;;;;;;3.50;91.95;94576.47;106625;1276;25360;-71
2023/01/20 04:13:53;;;;;;;14.80;7.90;;;;;;;3.49;92.32;94580.66;106655;1276;22523;-73
2023/01/20 04:16:24;;;;;;;15.20;8.60;;;;;;;3.52;92.31;94576.27;106593;1276;22656;-72
2023/01/20 04:18:53;;;;;;;15.70;8.60;;;;;;;3.54;92.15;94567.58;106607;1276;24202;-70
2023/01/20 04:21:29;;;;;;;28.90;13.40;;;;;;;3.55;92.04;94563.40;106613;1276;22536;-70
2023/01/20 04:23:58;;;;;;;18.90;9.80;;;;;;;3.49;92.03;94564.30;106590;1276;23716;-70
2023/01/20 04:26:26;;;;;;;14.60;8.00;;;;;;;3.51;92.36;94561.87;106679;1276;23008;-70
2023/01/20 04:28:54;;;;;;;13.80;8.20;;;;;;;3.56;92.52;94554.87;106661;1276;22534;-70
2023/01/20 04:31:23;;;;;;;15.80;8.60;;;;;;;3.58;92.37;94545.30;106489;1276;25335;-70
2023/01/20 04:33:58;;;;;;;17.20;8.20;;;;;;;3.63;92.34;94540.04;106632;1276;22549;-71
2023/01/20 04:36:27;;;;;;;17.10;10.00;;;;;;;3.66;92.20;94540.01;106669;1262;24350;-70
2023/01/20 04:38:55;;;;;;;17.50;9.70;;;;;;;3.68;92.03;94538.59;106488;1276;22646;-71
2023/01/20 04:41:23;;;;;;;17.50;10.60;;;;;;;3.75;92.20;94532.09;106686;1276;22524;-71
2023/01/20 04:43:52;;;;;;;22.30;15.50;;;;;;;3.81;92.19;94534.13;106616;1276;22531;-71
2023/01/20 04:46:20;;;;;;;12.40;6.90;;;;;;;3.83;91.89;94536.19;106595;1276;22532;-71
2023/01/20 04:48:48;;;;;;;16.60;9.60;;;;;;;3.83;91.72;94531.32;106589;1276;25393;-70
2023/01/20 04:51:17;;;;;;;17.00;11.80;;;;;;;3.82;91.61;94537.42;106586;1273;22531;-71
2023/01/20 04:53:45;;;;;;;94.80;73.70;;;;;;;3.76;91.22;94546.00;106612;1276;23154;-71
2023/01/20 04:56:14;;;;;;;50.30;35.00;;;;;;;3.77;91.47;94548.09;106758;1276;25393;-71
2023/01/20 04:58:43;;;;;;;161.40;113.30;;;;;;;3.80;91.72;94541.96;106850;1276;22526;-71
2023/01/20 05:01:11;;;;;;;49.70;36.00;;;;;;;3.77;91.19;94538.69;106720;1276;24366;-71
2023/01/20 05:03:40;;;;;;;30.00;21.40;;;;;;;3.80;91.41;94538.83;106673;1276;22547;-71
2023/01/20 05:06:10;;;;;;;70.40;52.40;;;;;;;3.82;91.39;94531.50;106632;1276;23927;-71
2023/01/20 05:08:39;;;;;;;152.80;109.00;;;;;;;3.76;91.05;94540.61;106644;1276;22918;-71
2023/01/20 05:11:07;;;;;;;33.20;23.50;;;;;;;3.72;91.24;94538.04;106635;1276;22527;-71
2023/01/20 05:13:38;;;;;;;60.30;42.60;;;;;;;3.72;91.26;94541.52;106579;1276;23039;-71
2023/01/20 05:16:08;;;;;;;30.60;20.70;;;;;;;3.72;91.44;94538.02;106636;1276;22534;-72
2023/01/20 05:18:37;;;;;;;16.70;10.80;;;;;;;3.71;91.34;94530.20;106642;1276;22562;-71
2023/01/20 05:21:07;;;;;;;15.90;10.20;;;;;;;3.65;91.09;94527.32;106509;1276;24259;-71
2023/01/20 05:23:36;;;;;;;20.20;13.20;;;;;;;3.60;91.29;94522.15;106604;1276;22523;-71
2023/01/20 05:26:04;;;;;;;17.60;11.90;;;;;;;3.55;91.32;94518.52;106637;1276;22539;-71
2023/01/20 05:28:33;;;;;;;14.70;9.20;;;;;;;3.55;91.26;94524.80;106434;1277;22530;-71
2023/01/20 05:31:01;;;;;;;15.40;11.70;;;;;;;3.57;91.74;94522.70;106543;1278;25223;-71
2023/01/20 05:33:30;;;;;;;14.80;9.90;;;;;;;3.56;91.57;94517.30;106400;1267;24468;-71
2023/01/20 05:35:58;;;;;;;15.60;9.00;;;;;;;3.56;91.72;94512.11;106298;1278;25558;-72
2023/01/20 05:38:26;;;;;;;84.60;53.10;;;;;;;3.57;91.63;94514.01;106345;1278;22529;-71
2023/01/20 05:41:03;;;;;;;62.20;41.30;;;;;;;3.62;91.92;94516.91;106333;1278;22547;-71
2023/01/20 05:43:31;;;;;;;63.80;38.80;;;;;;;3.64;91.68;94520.19;106384;1278;25079;-71
2023/01/20 05:46:00;;;;;;;24.70;15.60;;;;;;;3.62;91.35;94526.30;106500;1278;22534;-71
2023/01/20 05:48:29;;;;;;;26.40;15.10;;;;;;;3.68;91.94;94518.94;106203;1278;22549;-71
2023/01/20 05:50:58;;;;;;;39.70;26.00;;;;;;;3.75;91.88;94515.23;106347;1260;24219;-72
2023/01/20 05:53:26;;;;;;;43.10;29.40;;;;;;;3.74;91.26;94509.50;106529;1278;22522;-71
2023/01/20 05:56:01;;;;;;;19.30;13.10;;;;;;;3.70;91.09;94509.71;106396;1278;22567;-72
2023/01/20 05:58:30;;;;;;;13.60;8.30;;;;;;;3.73;91.13;94515.23;106433;1278;25393;-70
2023/01/20 06:01:11;;;;;;;10.20;6.10;;;;;;;3.74;90.99;94518.88;106556;1278;24201;-70
2023/01/20 06:03:40;;;;;;;12.30;8.40;;;;;;;3.72;90.89;94514.38;106556;1278;24048;-75
2023/01/20 06:06:17;;;;;;;12.40;8.20;;;;;;;3.69;90.82;94514.94;106866;1278;22669;-78
2023/01/20 06:08:48;;;;;;;25.60;19.20;;;;;;;3.68;90.90;94516.33;106450;1278;24367;-78
2023/01/20 06:11:16;;;;;;;10.20;5.10;;;;;;;3.70;90.98;94506.04;106746;1278;22795;-76
2023/01/20 06:13:47;;;;;;;8.70;5.00;;;;;;;3.70;90.97;94499.10;106727;1278;22942;-82
2023/01/20 06:29:31;;;;;;;6.90;5.00;;;;;;;4.42;88.11;94511.17;104336;1304;557598;-79
2023/01/20 06:48:30;;;;;;;10.70;6.70;;;;;;;4.46;86.54;94516.36;104460;1295;558414;-75
2023/01/20 06:51:10;;;;;;;6.70;4.40;;;;;;;4.22;86.90;94516.29;106094;1286;157654;-76
2023/01/20 06:53:38;;;;;;;16.00;13.60;;;;;;;4.06;87.48;94511.77;106459;1286;25365;-73
2023/01/20 06:56:10;;;;;;;8.00;5.50;;;;;;;3.97;88.17;94508.91;106209;1285;22541;-70
2023/01/20 06:58:39;;;;;;;9.30;6.20;;;;;;;3.93;88.78;94502.17;106356;1285;25507;-73
2023/01/20 07:01:22;;;;;;;9.70;6.00;;;;;;;3.91;89.09;94500.79;105921;1286;22684;-74
2023/01/20 07:03:51;;;;;;;7.80;4.90;;;;;;;3.87;89.33;94506.05;107158;1279;23400;-73
2023/01/20 07:06:24;;;;;;;5.80;3.60;;;;;;;3.81;89.10;94505.59;106578;1263;25619;-74
2023/01/20 07:08:52;;;;;;;;;;;;;;;3.82;89.70;94508.36;106803;1267;25306;-75
2023/01/20 07:11:20;;;;;;;5.90;3.70;;;;;;;3.81;89.83;94507.69;106684;1279;24209;-75
2023/01/20 07:13:48;;;;;;;6.70;4.40;;;;;;;3.78;89.66;94504.92;106711;1279;25686;-74
2023/01/20 07:16:17;;;;;;;181.50;90.30;;;;;;;3.68;89.54;94504.85;106522;1279;25342;-77
2023/01/20 07:18:50;;;;;;;132.50;56.60;;;;;;;3.59;89.89;94497.64;106675;1279;22638;-76
2023/01/20 07:21:19;;;;;;;497.90;240.70;;;;;;;3.53;90.07;94500.30;106587;1279;23150;-77
2023/01/20 07:23:48;;;;;;;133.40;66.70;;;;;;;3.54;90.19;94500.13;106645;1279;22649;-81
2023/01/20 07:26:18;;;;;;;237.80;130.20;;;;;;;3.53;90.10;94509.87;106975;1279;22663;-81
2023/01/20 07:28:47;;;;;;;58.40;35.40;;;;;;;3.53;90.34;94518.73;106359;1279;25487;-74
2023/01/20 07:31:18;;;;;;;25.70;17.20;;;;;;;3.55;90.38;94520.45;106848;1279;22646;-78
2023/01/20 07:33:46;;;;;;;29.50;23.10;;;;;;;3.54;90.38;94523.25;106801;1279;22651;-77
2023/01/20 07:36:16;;;;;;;19.80;16.00;;;;;;;3.51;90.25;94522.05;106742;1279;25487;-78
2023/01/20 07:38:49;;;;;;;18.70;15.80;;;;;;;3.48;90.31;94524.33;106984;1275;25505;-77
2023/01/20 07:41:18;;;;;;;;;;;;;;;3.50;90.24;94521.36;106914;1274;24212;-79
2023/01/20 07:43:51;;;;;;;16.20;13.00;;;;;;;3.46;90.37;94523.48;106998;1275;22646;-74
2023/01/20 07:46:20;;;;;;;5.70;3.90;;;;;;;3.48;90.21;94521.73;106774;1275;22527;-70
2023/01/20 07:48:48;;;;;;;8.50;7.40;;;;;;;3.47;90.14;94520.34;106783;1275;25466;-84
2023/01/20 07:51:17;;;;;;;6.70;5.30;;;;;;;3.47;90.23;94516.69;106673;1275;22604;-74
2023/01/20 07:53:49;;;;;;;8.30;6.60;;;;;;;3.44;90.22;94513.77;107469;1275;25265;-83
2023/01/20 07:56:21;;;;;;;8.70;5.40;;;;;;;3.42;90.29;94519.52;107009;1276;22577;-77
2023/01/20 07:58:50;;;;;;;6.30;4.20;;;;;;;3.44;90.40;94513.77;106967;1276;25284;-74
2023/01/20 08:01:27;;;;;;;6.90;4.70;;;;;;;3.46;90.38;94509.40;106892;1276;22523;-79
2023/01/20 08:03:57;;;;;;;5.50;3.70;;;;;;;3.44;90.51;94506.47;106907;1276;22520;-78
2023/01/20 08:06:25;;;;;;;6.10;4.10;;;;;;;3.40;90.84;94505.97;107062;1276;24247;-82
2023/01/20 08:08:54;;;;;;;7.80;4.40;;;;;;;3.36;90.86;94515.06;106974;1276;25473;-82
2023/01/20 08:11:25;;;;;;;8.60;4.40;;;;;;;3.35;90.88;94513.15;106731;1276;22554;-73
2023/01/20 08:13:54;;;;;;;7.50;4.60;;;;;;;3.37;90.91;94504.79;106638;1267;22603;-81
2023/01/20 08:16:22;;;;;;;7.20;5.10;;;;;;;3.37;91.04;94509.65;106919;1276;22522;-80
2023/01/20 08:18:53;;;;;;;6.10;3.60;;;;;;;3.38;90.98;94503.39;106907;1276;24228;-78
2023/01/20 08:21:26;;;;;;;5.40;3.80;;;;;;;3.33;90.91;94502.58;106875;1276;24353;-74
2023/01/20 08:23:56;;;;;;;;;;;;;;;3.33;91.03;94505.36;107116;1276;24374;-85
2023/01/20 08:26:26;;;;;;;6.00;3.90;;;;;;;3.33;91.20;94499.96;106879;1276;22534;-78
2023/01/20 08:29:00;;;;;;;6.30;4.30;;;;;;;3.35;91.28;94497.67;106721;1276;25532;-74
2023/01/20 08:31:28;;;;;;;;;;;;;;;3.40;91.34;94485.47;106781;1276;22545;-71
2023/01/20 08:33:57;;;;;;;3.80;2.80;;;;;;;3.39;91.03;94481.12;106774;1263;22611;-76
2023/01/20 08:36:32;;;;;;;4.30;2.80;;;;;;;3.39;90.99;94482.86;106919;1276;22753;-73
2023/01/20 08:39:03;;;;;;;4.20;2.80;;;;;;;3.43;91.21;94486.13;107062;1276;22770;-74
2023/01/20 08:41:34;;;;;;;5.10;3.50;;;;;;;3.53;91.37;94485.88;106958;1276;24384;-75
2023/01/20 08:44:04;;;;;;;3.80;3.00;;;;;;;3.56;90.91;94475.59;107042;1276;22520;-73
2023/01/20 08:46:32;;;;;;;4.50;3.40;;;;;;;3.55;90.66;94480.98;106738;1266;22563;-71
2023/01/20 08:49:00;;;;;;;5.40;3.90;;;;;;;3.57;90.56;94489.99;107118;1276;24047;-73
2023/01/20 08:51:46;;;;;;;5.00;4.20;;;;;;;3.58;90.51;94496.42;106866;1276;22601;-69
2023/01/20 08:54:15;;;;;;;3.60;2.50;;;;;;;3.60;90.59;94507.20;107024;1276;22775;-74
2023/01/20 08:56:43;;;;;;;5.60;4.50;;;;;;;3.64;90.84;94506.63;106820;1276;22878;-76
2023/01/20 08:59:11;;;;;;;6.70;5.80;;;;;;;3.71;91.03;94509.70;106996;1276;22574;-86
2023/01/20 09:01:40;;;;;;;3.20;2.60;;;;;;;3.75;90.55;94510.86;107043;1276;22529;-76
2023/01/20 09:04:09;;;;;;;3.50;2.80;;;;;;;3.77;90.36;94515.04;107084;1276;25616;-73
2023/01/20 09:06:40;;;;;;;3.60;2.60;;;;;;;3.79;90.47;94518.83;107022;1276;22566;-70
2023/01/20 09:09:09;;;;;;;2.70;2.40;;;;;;;3.84;90.50;94510.61;107023;1276;25285;-72
2023/01/20 09:11:38;;;;;;;4.70;3.70;;;;;;;3.86;90.42;94508.84;107071;1276;22672;-70
2023/01/20 09:14:06;;;;;;;3.60;3.00;;;;;;;3.87;90.14;94500.13;107072;1276;22531;-76
2023/01/20 09:16:35;;;;;;;19.50;17.10;;;;;;;3.86;90.18;94488.33;107026;1276;25220;-71
2023/01/20 09:19:03;;;;;;;10.50;9.30;;;;;;;3.84;90.24;94487.82;107114;1276;22539;-85
2023/01/20 09:21:31;;;;;;;5.50;4.50;;;;;;;3.90;90.48;94478.71;107237;1276;23052;-74
2023/01/20 09:23:59;;;;;;;4.70;4.20;;;;;;;3.89;90.07;94478.36;107199;1276;22519;-75
2023/01/20 09:26:37;;;;;;;3.70;2.20;;;;;;;3.84;89.83;94482.77;107064;1272;22537;-78
2023/01/20 09:29:10;;;;;;;2.90;2.50;;;;;;;3.77;89.82;94482.51;107116;1269;22528;-75
2023/01/20 09:31:42;;;;;;;2.80;2.50;;;;;;;3.80;90.26;94474.83;106860;1275;22523;-77
2023/01/20 09:34:17;;;;;;;3.00;2.50;;;;;;;3.83;90.37;94464.52;107772;1276;22609;-74
2023/01/20 09:36:57;;;;;;;3.80;3.10;;;;;;;3.91;90.62;94458.16;106931;1263;22520;-77
2023/01/20 09:45:24;;;;;;;4.30;3.40;;;;;;;4.25;90.82;94454.45;106868;1275;25321;-80
2023/01/20 09:54:12;;;;;;;9.00;7.70;;;;;;;4.55;90.32;94433.70;107079;1276;22634;-75
2023/01/20 09:56:45;;;;;;;5.80;4.20;;;;;;;4.54;89.81;94430.22;107143;1270;24265;-77
2023/01/20 09:59:22;;;;;;;5.70;4.00;;;;;;;4.53;89.77;94427.96;107021;1276;24474;-73
2023/01/20 10:01:55;;;;;;;11.20;8.10;;;;;;;4.56;89.85;94429.33;106867;1276;22537;-75
2023/01/20 10:04:35;;;;;;;;;;;;;;;4.57;89.61;94426.88;106719;1275;22508;-79
2023/01/20 10:07:32;;;;;;;5.60;3.90;;;;;;;4.52;89.37;94426.41;107523;1275;24247;-78
2023/01/20 10:10:18;;;;;;;6.10;4.40;;;;;;;4.48;89.31;94408.19;106666;1275;22585;-78
2023/01/20 10:13:02;;;;;;;8.20;6.20;;;;;;;4.47;89.30;94400.89;106684;1276;24199;-78
2023/01/20 10:15:43;;;;;;;7.10;4.90;;;;;;;4.50;89.73;94398.23;106695;1276;23885;-78
2023/01/20 10:18:19;;;;;;;7.90;5.20;;;;;;;4.57;89.89;94397.96;106800;1276;22636;-78
2023/01/20 10:20:53;;;;;;;10.40;7.20;;;;;;;4.63;89.75;94403.11;107093;1275;22598;-78
2023/01/20 10:23:43;;;;;;;9.30;6.30;;;;;;;4.61;89.26;94391.12;107011;1275;24234;-78
2023/01/20 10:26:20;;;;;;;12.10;7.10;;;;;;;4.60;89.54;94394.09;107106;1275;25207;-78
2023/01/20 10:28:56;;;;;;;13.10;8.60;;;;;;;4.61;89.51;94388.16;106970;1275;23366;-78
2023/01/20 10:31:28;;;;;;;12.10;8.30;;;;;;;4.61;89.59;94382.06;106698;1276;22618;-78
2023/01/20 10:34:04;;;;;;;12.50;8.60;;;;;;;4.62;89.36;94379.78;107040;1276;22515;-78
2023/01/20 10:36:33;;;;;;;8.80;6.30;;;;;;;4.66;89.63;94377.98;106734;1275;22520;-78
2023/01/20 10:39:09;;;;;;;9.50;5.90;;;;;;;4.66;88.99;94370.83;106769;1276;22523;-78
2023/01/20 10:42:00;;;;;;;11.10;7.20;;;;;;;4.64;88.85;94372.09;106673;1276;25207;-77
2023/01/20 10:44:33;;;;;;;10.00;6.80;;;;;;;4.67;89.33;94375.35;106632;1275;25216;-78
2023/01/20 10:47:13;;;;;;;8.80;5.80;;;;;;;4.70;88.95;94373.02;106703;1275;25464;-78
2023/01/20 10:49:59;;;;;;;9.00;6.10;;;;;;;4.73;89.07;94375.07;106815;1276;22531;-78
2023/01/20 10:52:50;;;;;;;9.60;6.20;;;;;;;4.78;89.15;94367.67;106701;1275;22785;-79
2023/01/20 10:55:39;;;;;;;10.00;7.40;;;;;;;4.89;89.40;94363.84;106740;1275;24356;-79
2023/01/20 10:58:10;;;;;;;9.70;8.00;;;;;;;4.96;89.15;94354.31;106728;1276;24324;-79
2023/01/20 11:00:41;;;;;;;10.40;7.50;;;;;;;5.00;89.18;94348.66;106685;1253;25549;-79
2023/01/20 11:03:19;;;;;;;11.90;6.80;;;;;;;5.03;89.25;94344.09;106690;1276;25385;-78
2023/01/20 11:05:49;;;;;;;8.90;7.30;;;;;;;5.06;89.12;94340.21;106626;1275;24810;-79
2023/01/20 11:08:25;;;;;;;9.90;6.50;;;;;;;5.05;89.04;94333.25;106740;1263;25488;-79
2023/01/20 11:11:09;;;;;;;10.00;6.90;;;;;;;5.08;89.18;94329.53;106745;1276;22534;-80
2023/01/20 11:13:37;;;;;;;9.10;6.10;;;;;;;5.17;89.25;94329.90;106639;1276;26512;-79
2023/01/20 11:16:16;;;;;;;8.50;6.50;;;;;;;5.16;88.50;94328.52;106767;1276;22536;-79
2023/01/20 11:19:02;;;;;;;8.30;5.50;;;;;;;5.13;88.39;94324.23;106843;1276;22600;-78
2023/01/20 11:21:35;;;;;;;7.50;5.20;;;;;;;5.10;88.31;94318.36;106720;1276;24273;-78
2023/01/20 11:24:30;;;;;;;5.80;4.70;;;;;;;5.07;88.14;94317.19;106729;1276;22549;-78
2023/01/20 11:27:10;;;;;;;13.50;8.40;;;;;;;5.03;88.56;94314.30;106654;1273;22520;-78
2023/01/20 11:29:47;;;;;;;28.90;15.10;;;;;;;5.06;89.39;94313.89;106635;1276;25224;-78
2023/01/20 11:32:25;;;;;;;23.90;14.80;;;;;;;5.07;89.49;94309.68;106690;1276;24451;-78
2023/01/20 11:34:54;;;;;;;41.30;22.40;;;;;;;5.06;89.62;94306.38;106599;1276;25262;-79
2023/01/20 11:37:25;;;;;;;27.80;16.80;;;;;;;5.05;89.17;94302.56;106657;1275;22539;-78
2023/01/20 11:40:02;;;;;;;14.60;8.30;;;;;;;5.04;88.99;94298.25;106692;1275;24794;-78
2023/01/20 11:42:43;;;;;;;7.30;5.20;;;;;;;5.06;89.22;94301.70;106641;1275;25240;-78
2023/01/20 11:45:34;;;;;;;8.10;5.10;;;;;;;5.12;89.47;94299.48;106707;1275;22528;-78
2023/01/20 11:48:17;;;;;;;15.40;10.00;;;;;;;5.17;89.42;94298.88;106677;1275;24364;-79
2023/01/20 11:50:49;;;;;;;17.70;11.80;;;;;;;5.18;89.38;94296.58;106663;1276;25281;-79
2023/01/20 11:53:35;;;;;;;16.70;9.30;;;;;;;5.18;89.05;94297.64;106745;1275;26726;-79
2023/01/20 11:56:25;;;;;;;11.00;6.80;;;;;;;5.13;88.85;94295.44;106667;1275;22784;-78
2023/01/20 11:59:00;;;;;;;9.60;6.00;;;;;;;5.11;89.13;94297.23;106813;1275;22660;-78
2023/01/20 12:01:48;;;;;;;8.40;4.70;;;;;;;5.14;89.48;94300.66;106656;1276;22643;-78
2023/01/20 12:04:24;;;;;;;8.20;5.00;;;;;;;5.14;89.21;94297.88;106619;1276;25323;-78
2023/01/20 12:07:01;;;;;;;9.90;5.40;;;;;;;5.14;89.37;94294.56;106666;1276;22527;-78
2023/01/20 12:09:38;;;;;;;8.20;4.80;;;;;;;5.17;89.47;94293.46;106702;1276;24788;-79
2023/01/20 12:12:26;;;;;;;8.00;5.90;;;;;;;5.17;89.10;94286.66;106757;1276;24317;-79
2023/01/20 12:15:02;;;;;;;23.40;13.30;;;;;;;5.14;89.26;94286.38;106775;1276;25475;-79
2023/01/20 12:17:43;;;;;;;22.10;12.20;;;;;;;5.13;89.62;94283.42;106693;1276;22602;-78
2023/01/20 12:21:06;;;;;;;30.70;15.70;;;;;;;5.13;89.89;94280.64;106673;1276;26135;-79
2023/01/20 12:23:59;;;;;;;18.70;10.80;;;;;;;5.12;89.80;94279.27;106190;1281;22604;-79
2023/01/20 12:26:34;;;;;;;12.50;7.40;;;;;;;5.13;89.56;94276.46;106644;1276;22536;-79
2023/01/20 12:29:37;;;;;;;18.50;12.00;;;;;;;5.13;89.73;94271.73;106671;1275;25475;-78
2023/01/20 12:32:05;;;;;;;16.60;10.90;;;;;;;5.19;90.34;94263.27;106846;1275;22577;-79
2023/01/20 12:34:34;;;;;;;13.50;8.70;;;;;;;5.26;90.32;94258.95;106724;1276;22642;-79
2023/01/20 12:37:22;;;;;;;24.50;17.70;;;;;;;5.28;90.08;94256.83;106692;1276;24252;-79